createdAt,value
2022-09-23T00:01:22.640Z,19.55
2022-09-23T00:07:46.949Z,19.53
2022-09-23T00:14:11.272Z,19.51
2022-09-23T00:20:35.701Z,19.48
2022-09-23T00:27:00.082Z,19.45
2022-09-23T00:33:24.299Z,19.43
2022-09-23T00:39:48.636Z,19.40
2022-09-23T00:46:12.950Z,19.38
2022-09-23T00:52:40.295Z,19.36
2022-09-23T00:59:04.712Z,19.33
2022-09-23T01:05:28.935Z,19.31
2022-09-23T01:11:55.719Z,19.29
2022-09-23T01:18:21.289Z,19.27
2022-09-23T01:25:06.986Z,19.24
2022-09-23T01:31:46.528Z,19.22
2022-09-23T01:38:19.766Z,19.20
2022-09-23T01:44:46.626Z,19.18
2022-09-23T01:51:16.225Z,19.16
2022-09-23T01:57:46.119Z,19.14
2022-09-23T02:04:28.435Z,19.12
2022-09-23T02:11:01.452Z,19.10
2022-09-23T02:17:28.891Z,19.08
2022-09-23T02:23:55.899Z,19.05
2022-09-23T02:30:27.008Z,19.03
2022-09-23T02:36:54.077Z,19.01
2022-09-23T02:43:18.356Z,18.99
2022-09-23T02:49:45.241Z,18.98
2022-09-23T02:56:09.562Z,18.95
2022-09-23T03:02:38.214Z,18.94
2022-09-23T03:09:11.143Z,18.92
2022-09-23T03:15:50.344Z,18.89
2022-09-23T03:22:17.162Z,18.88
2022-09-23T03:28:41.449Z,18.85
2022-09-23T03:35:05.945Z,18.83
2022-09-23T03:41:33.012Z,18.82
2022-09-23T03:48:00.063Z,18.79
2022-09-23T03:54:24.367Z,18.77
2022-09-23T04:00:48.840Z,18.75
2022-09-23T04:07:13.291Z,18.73
2022-09-23T04:13:37.612Z,18.71
2022-09-23T04:20:01.919Z,18.70
2022-09-23T04:26:28.748Z,18.68
2022-09-23T04:32:52.988Z,18.69
2022-09-23T04:39:17.322Z,18.73
2022-09-23T04:45:33.736Z,18.81
2022-09-23T04:52:13.216Z,18.94
2022-09-23T04:58:37.499Z,19.09
2022-09-23T05:05:01.823Z,19.23
2022-09-23T05:11:25.772Z,19.36
2022-09-23T05:17:50.057Z,19.47
2022-09-23T05:24:14.312Z,19.59
2022-09-23T05:30:38.638Z,19.71
2022-09-23T05:37:03.108Z,19.81
2022-09-23T05:43:27.813Z,19.92
2022-09-23T05:50:00.488Z,20.03
2022-09-23T05:56:25.120Z,20.13
2022-09-23T06:02:49.348Z,20.22
2022-09-23T06:09:13.625Z,20.29
2022-09-23T06:15:37.853Z,20.33
2022-09-23T06:22:02.275Z,20.35
2022-09-23T06:28:35.347Z,20.36
2022-09-23T06:34:59.580Z,20.35
2022-09-23T06:41:23.777Z,20.35
2022-09-23T06:47:47.971Z,20.32
2022-09-23T06:54:12.272Z,20.30
2022-09-23T07:00:36.481Z,20.27
2022-09-23T07:07:00.722Z,20.26
2022-09-23T07:13:25.050Z,20.24
2022-09-23T07:19:49.361Z,20.22
2022-09-23T07:26:13.735Z,20.20
2022-09-23T07:32:47.245Z,20.16
2022-09-23T07:39:12.768Z,20.14
2022-09-23T07:45:37.113Z,20.12
2022-09-23T07:52:04.583Z,20.08
2022-09-23T07:58:28.847Z,20.01
2022-09-23T08:04:53.152Z,19.47
2022-09-23T08:11:17.477Z,18.99
2022-09-23T08:17:41.753Z,19.22
2022-09-23T08:24:06.114Z,19.56
2022-09-23T08:30:30.831Z,19.85
2022-09-23T08:36:55.097Z,20.08
2022-09-23T08:43:19.304Z,20.26
2022-09-23T08:49:46.429Z,20.40
2022-09-23T08:55:51.189Z,20.50
2022-09-23T09:02:33.554Z,20.56
2022-09-23T09:08:57.888Z,20.49
2022-09-23T09:15:31.310Z,20.47
2022-09-23T09:22:07.820Z,20.50
2022-09-23T09:28:32.554Z,20.53
2022-09-23T09:35:05.803Z,20.54
2022-09-23T09:41:29.991Z,20.56
2022-09-23T09:47:55.962Z,20.59
2022-09-23T09:54:20.202Z,20.59
2022-09-23T10:01:02.488Z,20.59
2022-09-23T10:07:26.819Z,20.59
2022-09-23T10:13:56.951Z,20.60
2022-09-23T10:20:27.338Z,20.59
2022-09-23T10:27:06.479Z,20.60
2022-09-23T10:33:36.740Z,20.62
2022-09-23T10:39:59.306Z,20.58
2022-09-23T10:46:27.857Z,20.57
2022-09-23T10:53:07.091Z,20.61
2022-09-23T10:59:40.311Z,20.78
2022-09-23T11:06:06.153Z,20.91
2022-09-23T11:12:31.876Z,21.10
2022-09-23T11:19:20.503Z,21.37
2022-09-23T11:25:46.130Z,21.67
2022-09-23T11:32:13.313Z,21.94
2022-09-23T11:38:52.898Z,22.19
2022-09-23T11:45:25.010Z,22.42
2022-09-23T11:51:51.955Z,22.63
2022-09-23T11:58:24.337Z,22.82
2022-09-23T12:04:57.323Z,22.93
2022-09-23T12:11:21.347Z,23.06
2022-09-23T12:17:51.379Z,23.20
2022-09-23T12:24:27.899Z,23.33
2022-09-23T12:31:01.572Z,23.47
2022-09-23T12:37:25.948Z,23.63
2022-09-23T12:43:58.995Z,23.91
2022-09-23T12:50:26.133Z,24.12
2022-09-23T12:56:59.667Z,24.50
2022-09-23T13:03:28.397Z,24.77
2022-09-23T13:09:58.585Z,24.70
2022-09-23T13:16:28.915Z,25.26
2022-09-23T13:22:59.484Z,26.13
2022-09-23T13:29:35.969Z,25.84
2022-09-23T13:36:12.205Z,25.17
2022-09-23T13:42:36.589Z,25.01
2022-09-23T13:49:07.047Z,25.77
2022-09-23T13:55:32.241Z,26.53
2022-09-23T14:02:02.768Z,26.89
2022-09-23T14:08:27.039Z,27.02
2022-09-23T14:14:54.013Z,26.87
2022-09-23T14:21:27.151Z,26.49
2022-09-23T14:27:58.499Z,26.08
2022-09-23T14:34:24.650Z,25.57
2022-09-23T14:40:49.418Z,25.04
2022-09-23T14:47:13.878Z,24.54
2022-09-23T14:53:44.033Z,24.16
2022-09-23T15:00:14.099Z,23.88
2022-09-23T15:06:44.228Z,23.65
2022-09-23T15:13:14.491Z,23.46
2022-09-23T15:19:47.286Z,23.28
2022-09-23T15:26:20.623Z,23.13
2022-09-23T15:32:44.901Z,22.95
2022-09-23T15:39:09.223Z,22.76
2022-09-23T15:45:33.603Z,22.61
2022-09-23T15:51:57.938Z,22.46
2022-09-23T15:58:22.136Z,22.33
2022-09-23T16:04:46.455Z,22.17
2022-09-23T16:11:10.801Z,22.04
2022-09-23T16:17:35.016Z,21.90
2022-09-23T16:23:56.065Z,21.78
2022-09-23T16:30:21.008Z,21.66
2022-09-23T16:36:48.345Z,21.57
2022-09-23T16:43:12.730Z,21.47
2022-09-23T16:49:37.039Z,21.38
2022-09-23T16:56:01.383Z,21.30
2022-09-23T17:02:24.300Z,21.22
2022-09-23T17:08:48.741Z,21.15
2022-09-23T17:15:12.768Z,21.10
2022-09-23T17:21:37.061Z,21.13
2022-09-23T17:28:01.272Z,21.24
2022-09-23T17:34:25.914Z,21.44
2022-09-23T17:40:50.380Z,21.68
2022-09-23T17:47:14.849Z,21.93
2022-09-23T17:53:39.122Z,22.14
2022-09-23T18:00:03.807Z,22.33
2022-09-23T18:06:28.081Z,22.43
2022-09-23T18:12:52.310Z,22.50
2022-09-23T18:19:16.583Z,22.52
2022-09-23T18:25:40.930Z,22.48
2022-09-23T18:32:05.275Z,22.39
2022-09-23T18:38:29.596Z,22.32
2022-09-23T18:44:54.065Z,22.25
2022-09-23T18:51:18.308Z,22.18
2022-09-23T18:57:42.658Z,22.14
2022-09-23T19:04:06.972Z,22.10
2022-09-23T19:10:31.336Z,22.04
2022-09-23T19:16:55.562Z,21.97
2022-09-23T19:23:20.216Z,21.92
2022-09-23T19:29:50.357Z,21.88
2022-09-23T19:36:14.669Z,21.82
2022-09-23T19:42:39.021Z,21.77
2022-09-23T19:49:03.280Z,21.72
2022-09-23T19:55:27.710Z,21.68
2022-09-23T20:01:52.082Z,21.64
2022-09-23T20:08:16.422Z,21.60
2022-09-23T20:14:40.640Z,21.57
2022-09-23T20:21:05.479Z,21.54
2022-09-23T20:27:29.762Z,21.49
2022-09-23T20:33:46.767Z,21.46
2022-09-23T20:40:11.070Z,21.42
2022-09-23T20:46:38.230Z,21.38
2022-09-23T20:53:02.601Z,21.35
2022-09-23T20:59:26.889Z,21.30
2022-09-23T21:05:51.864Z,21.27
2022-09-23T21:12:16.150Z,21.23
2022-09-23T21:18:40.319Z,21.19
2022-09-23T21:25:26.982Z,21.15
2022-09-23T21:31:48.987Z,21.10
2022-09-23T21:38:13.352Z,21.04
2022-09-23T21:44:38.006Z,20.98
2022-09-23T21:51:02.234Z,20.92
2022-09-23T21:57:26.704Z,20.87
2022-09-23T22:03:52.045Z,20.81
2022-09-23T22:10:16.370Z,20.77
2022-09-23T22:16:40.725Z,20.72
2022-09-23T22:23:08.266Z,20.67
2022-09-23T22:29:31.203Z,20.63
2022-09-23T22:35:55.534Z,20.58
2022-09-23T22:42:18.775Z,20.54
2022-09-23T22:48:43.128Z,20.49
2022-09-23T22:55:09.986Z,20.44
2022-09-23T23:01:36.997Z,20.40
2022-09-23T23:08:01.316Z,20.36
2022-09-23T23:14:25.594Z,20.32
2022-09-23T23:20:42.451Z,20.29
2022-09-23T23:27:09.497Z,20.25
2022-09-23T23:33:33.722Z,20.22
2022-09-23T23:39:58.046Z,20.18
2022-09-23T23:46:22.358Z,20.15
2022-09-23T23:52:46.626Z,20.11
2022-09-23T23:59:10.886Z,20.08
